sensor_id;sensor_type;location;lat;lon;timestamp;P1;durP1;ratioP1;P2;durP2;ratioP2
12675;SDS011;63820;65.654;21.944;2024-01-07T00:01:07;0.38;;;0.38;;
12675;SDS011;63820;65.654;21.944;2024-01-07T00:03:53;0.73;;;0.73;;
12675;SDS011;63820;65.654;21.944;2024-01-07T00:06:36;1.00;;;0.75;;
12675;SDS011;63820;65.654;21.944;2024-01-07T00:09:21;0.40;;;0.40;;
12675;SDS011;63820;65.654;21.944;2024-01-07T00:12:05;2.45;;;1.67;;
12675;SDS011;63820;65.654;21.944;2024-01-07T00:14:49;0.40;;;0.40;;
12675;SDS011;63820;65.654;21.944;2024-01-07T00:17:33;0.40;;;0.40;;
12675;SDS011;63820;65.654;21.944;2024-01-07T00:20:17;2.58;;;1.67;;
12675;SDS011;63820;65.654;21.944;2024-01-07T00:23:01;0.63;;;0.63;;
12675;SDS011;63820;65.654;21.944;2024-01-07T00:25:45;0.30;;;0.30;;
12675;SDS011;63820;65.654;21.944;2024-01-07T00:28:30;0.30;;;0.30;;
12675;SDS011;63820;65.654;21.944;2024-01-07T00:31:14;0.40;;;0.40;;
12675;SDS011;63820;65.654;21.944;2024-01-07T00:33:58;1.02;;;1.02;;
12675;SDS011;63820;65.654;21.944;2024-01-07T00:36:42;0.30;;;0.30;;
12675;SDS011;63820;65.654;21.944;2024-01-07T00:39:26;0.50;;;0.50;;
12675;SDS011;63820;65.654;21.944;2024-01-07T00:42:10;0.40;;;0.40;;
12675;SDS011;63820;65.654;21.944;2024-01-07T00:44:54;1.25;;;0.88;;
12675;SDS011;63820;65.654;21.944;2024-01-07T00:47:38;0.40;;;0.40;;
12675;SDS011;63820;65.654;21.944;2024-01-07T00:50:22;0.52;;;0.52;;
12675;SDS011;63820;65.654;21.944;2024-01-07T00:53:06;0.40;;;0.40;;
12675;SDS011;63820;65.654;21.944;2024-01-07T00:55:50;0.30;;;0.30;;
12675;SDS011;63820;65.654;21.944;2024-01-07T00:58:35;0.50;;;0.50;;
12675;SDS011;63820;65.654;21.944;2024-01-07T01:01:20;0.40;;;0.40;;
12675;SDS011;63820;65.654;21.944;2024-01-07T01:04:04;0.30;;;0.30;;
12675;SDS011;63820;65.654;21.944;2024-01-07T01:06:48;0.30;;;0.30;;
12675;SDS011;63820;65.654;21.944;2024-01-07T01:09:32;1.13;;;1.05;;
12675;SDS011;63820;65.654;21.944;2024-01-07T01:12:16;0.30;;;0.30;;
12675;SDS011;63820;65.654;21.944;2024-01-07T01:15:00;0.93;;;0.93;;
12675;SDS011;63820;65.654;21.944;2024-01-07T01:17:43;0.50;;;0.50;;
12675;SDS011;63820;65.654;21.944;2024-01-07T01:20:28;0.50;;;0.50;;
12675;SDS011;63820;65.654;21.944;2024-01-07T01:23:12;0.80;;;0.80;;
12675;SDS011;63820;65.654;21.944;2024-01-07T01:25:56;1.15;;;1.13;;
12675;SDS011;63820;65.654;21.944;2024-01-07T01:28:40;2.80;;;2.70;;
12675;SDS011;63820;65.654;21.944;2024-01-07T01:31:24;7.43;;;3.63;;
12675;SDS011;63820;65.654;21.944;2024-01-07T01:34:08;1.15;;;1.05;;
12675;SDS011;63820;65.654;21.944;2024-01-07T01:36:52;2.15;;;1.95;;
12675;SDS011;63820;65.654;21.944;2024-01-07T01:39:38;0.47;;;0.47;;
12675;SDS011;63820;65.654;21.944;2024-01-07T01:42:24;0.50;;;0.50;;
12675;SDS011;63820;65.654;21.944;2024-01-07T01:45:09;0.50;;;0.50;;
12675;SDS011;63820;65.654;21.944;2024-01-07T01:47:53;2.28;;;2.05;;
12675;SDS011;63820;65.654;21.944;2024-01-07T01:50:37;0.40;;;0.40;;
12675;SDS011;63820;65.654;21.944;2024-01-07T01:53:21;0.30;;;0.30;;
12675;SDS011;63820;65.654;21.944;2024-01-07T01:56:05;0.73;;;0.73;;
12675;SDS011;63820;65.654;21.944;2024-01-07T01:58:50;0.70;;;0.70;;
12675;SDS011;63820;65.654;21.944;2024-01-07T02:01:34;0.30;;;0.30;;
12675;SDS011;63820;65.654;21.944;2024-01-07T02:04:19;0.40;;;0.40;;
12675;SDS011;63820;65.654;21.944;2024-01-07T02:07:03;0.45;;;0.45;;
12675;SDS011;63820;65.654;21.944;2024-01-07T02:09:47;0.40;;;0.40;;
12675;SDS011;63820;65.654;21.944;2024-01-07T02:12:31;3.00;;;1.15;;
12675;SDS011;63820;65.654;21.944;2024-01-07T02:15:15;0.30;;;0.30;;
12675;SDS011;63820;65.654;21.944;2024-01-07T02:18:00;0.30;;;0.30;;
12675;SDS011;63820;65.654;21.944;2024-01-07T02:20:44;1.50;;;0.60;;
12675;SDS011;63820;65.654;21.944;2024-01-07T02:23:28;0.30;;;0.30;;
12675;SDS011;63820;65.654;21.944;2024-01-07T02:26:12;4.00;;;0.95;;
12675;SDS011;63820;65.654;21.944;2024-01-07T02:28:56;12.10;;;1.25;;
12675;SDS011;63820;65.654;21.944;2024-01-07T02:31:40;0.40;;;0.40;;
12675;SDS011;63820;65.654;21.944;2024-01-07T02:34:24;0.50;;;0.50;;
12675;SDS011;63820;65.654;21.944;2024-01-07T02:37:08;0.95;;;0.68;;
12675;SDS011;63820;65.654;21.944;2024-01-07T02:39:52;4.53;;;1.05;;
12675;SDS011;63820;65.654;21.944;2024-01-07T02:42:36;0.40;;;0.40;;
12675;SDS011;63820;65.654;21.944;2024-01-07T02:45:20;0.30;;;0.30;;
12675;SDS011;63820;65.654;21.944;2024-01-07T02:48:04;0.35;;;0.35;;
12675;SDS011;63820;65.654;21.944;2024-01-07T02:50:48;0.40;;;0.40;;
12675;SDS011;63820;65.654;21.944;2024-01-07T02:53:32;0.90;;;0.60;;
12675;SDS011;63820;65.654;21.944;2024-01-07T02:56:16;0.43;;;0.43;;
12675;SDS011;63820;65.654;21.944;2024-01-07T02:59:00;0.30;;;0.30;;
12675;SDS011;63820;65.654;21.944;2024-01-07T03:01:44;0.25;;;0.25;;
12675;SDS011;63820;65.654;21.944;2024-01-07T03:04:31;0.30;;;0.30;;
12675;SDS011;63820;65.654;21.944;2024-01-07T03:07:16;0.32;;;0.32;;
12675;SDS011;63820;65.654;21.944;2024-01-07T03:10:00;0.35;;;0.35;;
12675;SDS011;63820;65.654;21.944;2024-01-07T03:12:44;2.58;;;0.88;;
12675;SDS011;63820;65.654;21.944;2024-01-07T03:15:28;1.40;;;1.30;;
12675;SDS011;63820;65.654;21.944;2024-01-07T03:18:12;1.92;;;0.82;;
12675;SDS011;63820;65.654;21.944;2024-01-07T03:20:56;1.05;;;1.05;;
12675;SDS011;63820;65.654;21.944;2024-01-07T03:23:40;0.60;;;0.60;;
12675;SDS011;63820;65.654;21.944;2024-01-07T03:26:24;0.40;;;0.40;;
12675;SDS011;63820;65.654;21.944;2024-01-07T03:29:13;0.40;;;0.40;;
12675;SDS011;63820;65.654;21.944;2024-01-07T03:31:57;0.28;;;0.28;;
12675;SDS011;63820;65.654;21.944;2024-01-07T03:34:41;0.30;;;0.30;;
12675;SDS011;63820;65.654;21.944;2024-01-07T03:37:25;0.30;;;0.30;;
12675;SDS011;63820;65.654;21.944;2024-01-07T03:40:10;0.30;;;0.30;;
12675;SDS011;63820;65.654;21.944;2024-01-07T03:42:55;0.30;;;0.30;;
12675;SDS011;63820;65.654;21.944;2024-01-07T03:45:39;0.40;;;0.40;;
12675;SDS011;63820;65.654;21.944;2024-01-07T03:48:23;0.30;;;0.30;;
12675;SDS011;63820;65.654;21.944;2024-01-07T03:51:07;0.32;;;0.32;;
12675;SDS011;63820;65.654;21.944;2024-01-07T03:53:51;0.40;;;0.40;;
12675;SDS011;63820;65.654;21.944;2024-01-07T03:56:35;0.30;;;0.30;;
12675;SDS011;63820;65.654;21.944;2024-01-07T03:59:19;0.50;;;0.50;;
12675;SDS011;63820;65.654;21.944;2024-01-07T04:02:03;0.30;;;0.30;;
12675;SDS011;63820;65.654;21.944;2024-01-07T04:04:47;1.25;;;1.15;;
12675;SDS011;63820;65.654;21.944;2024-01-07T04:07:31;0.45;;;0.45;;
12675;SDS011;63820;65.654;21.944;2024-01-07T04:10:18;0.40;;;0.40;;
12675;SDS011;63820;65.654;21.944;2024-01-07T04:13:03;0.30;;;0.30;;
12675;SDS011;63820;65.654;21.944;2024-01-07T04:15:47;0.40;;;0.40;;
12675;SDS011;63820;65.654;21.944;2024-01-07T04:18:31;0.30;;;0.30;;
12675;SDS011;63820;65.654;21.944;2024-01-07T04:21:15;0.60;;;0.60;;
12675;SDS011;63820;65.654;21.944;2024-01-07T04:23:59;0.55;;;0.55;;
12675;SDS011;63820;65.654;21.944;2024-01-07T04:26:43;0.73;;;0.70;;
12675;SDS011;63820;65.654;21.944;2024-01-07T04:29:27;0.40;;;0.40;;
12675;SDS011;63820;65.654;21.944;2024-01-07T04:32:11;0.57;;;0.57;;
12675;SDS011;63820;65.654;21.944;2024-01-07T04:34:55;1.73;;;1.63;;
12675;SDS011;63820;65.654;21.944;2024-01-07T04:37:41;0.60;;;0.60;;
12675;SDS011;63820;65.654;21.944;2024-01-07T04:40:26;0.40;;;0.40;;
12675;SDS011;63820;65.654;21.944;2024-01-07T04:43:10;0.57;;;0.57;;
12675;SDS011;63820;65.654;21.944;2024-01-07T04:45:54;0.40;;;0.40;;
12675;SDS011;63820;65.654;21.944;2024-01-07T04:48:39;0.93;;;0.93;;
12675;SDS011;63820;65.654;21.944;2024-01-07T04:51:23;0.40;;;0.40;;
12675;SDS011;63820;65.654;21.944;2024-01-07T04:54:07;0.45;;;0.45;;
12675;SDS011;63820;65.654;21.944;2024-01-07T04:56:51;0.32;;;0.32;;
12675;SDS011;63820;65.654;21.944;2024-01-07T04:59:35;0.73;;;0.73;;
12675;SDS011;63820;65.654;21.944;2024-01-07T05:02:19;0.30;;;0.30;;
12675;SDS011;63820;65.654;21.944;2024-01-07T05:05:04;0.75;;;0.75;;
12675;SDS011;63820;65.654;21.944;2024-01-07T05:07:48;0.30;;;0.30;;
12675;SDS011;63820;65.654;21.944;2024-01-07T05:10:32;0.40;;;0.40;;
12675;SDS011;63820;65.654;21.944;2024-01-07T05:13:16;0.30;;;0.30;;
12675;SDS011;63820;65.654;21.944;2024-01-07T05:16:00;0.30;;;0.30;;
12675;SDS011;63820;65.654;21.944;2024-01-07T05:18:45;0.50;;;0.50;;
12675;SDS011;63820;65.654;21.944;2024-01-07T05:21:32;0.40;;;0.40;;
12675;SDS011;63820;65.654;21.944;2024-01-07T05:24:16;0.77;;;0.77;;
12675;SDS011;63820;65.654;21.944;2024-01-07T05:27:00;0.38;;;0.38;;
12675;SDS011;63820;65.654;21.944;2024-01-07T05:29:44;0.40;;;0.40;;
12675;SDS011;63820;65.654;21.944;2024-01-07T05:32:30;0.40;;;0.40;;
12675;SDS011;63820;65.654;21.944;2024-01-07T05:35:14;0.40;;;0.40;;
12675;SDS011;63820;65.654;21.944;2024-01-07T05:37:57;0.40;;;0.40;;
12675;SDS011;63820;65.654;21.944;2024-01-07T05:40:41;5.55;;;0.70;;
12675;SDS011;63820;65.654;21.944;2024-01-07T05:43:25;0.52;;;0.52;;
12675;SDS011;63820;65.654;21.944;2024-01-07T05:46:09;0.40;;;0.40;;
12675;SDS011;63820;65.654;21.944;2024-01-07T05:48:55;0.40;;;0.40;;
12675;SDS011;63820;65.654;21.944;2024-01-07T05:51:39;1.05;;;1.05;;
12675;SDS011;63820;65.654;21.944;2024-01-07T05:54:24;0.70;;;0.70;;
12675;SDS011;63820;65.654;21.944;2024-01-07T05:57:08;0.38;;;0.38;;
12675;SDS011;63820;65.654;21.944;2024-01-07T05:59:52;0.82;;;0.82;;
12675;SDS011;63820;65.654;21.944;2024-01-07T06:02:36;1.05;;;1.05;;
12675;SDS011;63820;65.654;21.944;2024-01-07T06:05:20;0.40;;;0.40;;
12675;SDS011;63820;65.654;21.944;2024-01-07T06:08:04;0.38;;;0.38;;
12675;SDS011;63820;65.654;21.944;2024-01-07T06:10:48;0.60;;;0.60;;
12675;SDS011;63820;65.654;21.944;2024-01-07T06:13:33;0.30;;;0.30;;
12675;SDS011;63820;65.654;21.944;2024-01-07T06:16:17;0.63;;;0.63;;
12675;SDS011;63820;65.654;21.944;2024-01-07T06:19:00;0.75;;;0.75;;
12675;SDS011;63820;65.654;21.944;2024-01-07T06:21:45;0.45;;;0.45;;
12675;SDS011;63820;65.654;21.944;2024-01-07T06:24:29;0.40;;;0.40;;
12675;SDS011;63820;65.654;21.944;2024-01-07T06:27:13;1.65;;;0.82;;
12675;SDS011;63820;65.654;21.944;2024-01-07T06:29:57;0.40;;;0.40;;
12675;SDS011;63820;65.654;21.944;2024-01-07T06:32:41;0.55;;;0.55;;
12675;SDS011;63820;65.654;21.944;2024-01-07T06:35:25;0.95;;;0.95;;
12675;SDS011;63820;65.654;21.944;2024-01-07T06:38:09;0.50;;;0.50;;
12675;SDS011;63820;65.654;21.944;2024-01-07T06:40:53;0.55;;;0.55;;
12675;SDS011;63820;65.654;21.944;2024-01-07T06:43:44;0.35;;;0.35;;
12675;SDS011;63820;65.654;21.944;2024-01-07T06:46:28;0.40;;;0.40;;
12675;SDS011;63820;65.654;21.944;2024-01-07T06:49:13;0.30;;;0.30;;
12675;SDS011;63820;65.654;21.944;2024-01-07T06:51:57;0.45;;;0.45;;
12675;SDS011;63820;65.654;21.944;2024-01-07T06:54:41;1.00;;;1.00;;
12675;SDS011;63820;65.654;21.944;2024-01-07T06:57:25;0.50;;;0.50;;
12675;SDS011;63820;65.654;21.944;2024-01-07T07:00:09;0.40;;;0.40;;
12675;SDS011;63820;65.654;21.944;2024-01-07T07:02:53;0.30;;;0.30;;
12675;SDS011;63820;65.654;21.944;2024-01-07T07:05:37;0.80;;;0.80;;
12675;SDS011;63820;65.654;21.944;2024-01-07T07:08:21;0.40;;;0.40;;
12675;SDS011;63820;65.654;21.944;2024-01-07T07:11:05;0.35;;;0.35;;
12675;SDS011;63820;65.654;21.944;2024-01-07T07:13:49;0.82;;;0.75;;
12675;SDS011;63820;65.654;21.944;2024-01-07T07:16:33;0.60;;;0.60;;
12675;SDS011;63820;65.654;21.944;2024-01-07T07:19:17;0.40;;;0.40;;
12675;SDS011;63820;65.654;21.944;2024-01-07T07:22:01;0.65;;;0.65;;
12675;SDS011;63820;65.654;21.944;2024-01-07T07:24:45;0.47;;;0.47;;
12675;SDS011;63820;65.654;21.944;2024-01-07T07:27:29;0.40;;;0.40;;
12675;SDS011;63820;65.654;21.944;2024-01-07T07:30:13;0.80;;;0.80;;
12675;SDS011;63820;65.654;21.944;2024-01-07T07:32:57;0.40;;;0.40;;
12675;SDS011;63820;65.654;21.944;2024-01-07T07:35:41;0.28;;;0.28;;
12675;SDS011;63820;65.654;21.944;2024-01-07T07:38:26;0.55;;;0.55;;
12675;SDS011;63820;65.654;21.944;2024-01-07T07:41:10;0.40;;;0.40;;
12675;SDS011;63820;65.654;21.944;2024-01-07T07:43:54;0.77;;;0.77;;
12675;SDS011;63820;65.654;21.944;2024-01-07T07:46:38;0.30;;;0.30;;
12675;SDS011;63820;65.654;21.944;2024-01-07T07:49:22;0.30;;;0.30;;
12675;SDS011;63820;65.654;21.944;2024-01-07T07:52:07;0.45;;;0.45;;
12675;SDS011;63820;65.654;21.944;2024-01-07T07:54:52;0.82;;;0.80;;
12675;SDS011;63820;65.654;21.944;2024-01-07T07:57:36;0.35;;;0.35;;
12675;SDS011;63820;65.654;21.944;2024-01-07T08:00:23;1.15;;;0.90;;
12675;SDS011;63820;65.654;21.944;2024-01-07T08:03:08;0.40;;;0.40;;
12675;SDS011;63820;65.654;21.944;2024-01-07T08:05:52;0.50;;;0.50;;
12675;SDS011;63820;65.654;21.944;2024-01-07T08:08:36;1.20;;;0.98;;
12675;SDS011;63820;65.654;21.944;2024-01-07T08:11:20;0.95;;;0.60;;
12675;SDS011;63820;65.654;21.944;2024-01-07T08:14:04;0.65;;;0.65;;
12675;SDS011;63820;65.654;21.944;2024-01-07T08:16:49;0.40;;;0.40;;
12675;SDS011;63820;65.654;21.944;2024-01-07T08:19:33;0.30;;;0.30;;
12675;SDS011;63820;65.654;21.944;2024-01-07T08:22:18;0.40;;;0.40;;
12675;SDS011;63820;65.654;21.944;2024-01-07T08:25:02;0.30;;;0.30;;
12675;SDS011;63820;65.654;21.944;2024-01-07T08:27:46;7.20;;;1.00;;
12675;SDS011;63820;65.654;21.944;2024-01-07T08:30:31;0.60;;;0.60;;
12675;SDS011;63820;65.654;21.944;2024-01-07T08:33:15;0.73;;;0.73;;
12675;SDS011;63820;65.654;21.944;2024-01-07T08:35:59;0.30;;;0.30;;
12675;SDS011;63820;65.654;21.944;2024-01-07T08:38:43;0.60;;;0.60;;
12675;SDS011;63820;65.654;21.944;2024-01-07T08:41:27;0.53;;;0.40;;
12675;SDS011;63820;65.654;21.944;2024-01-07T08:44:11;0.47;;;0.47;;
12675;SDS011;63820;65.654;21.944;2024-01-07T08:46:55;0.40;;;0.40;;
12675;SDS011;63820;65.654;21.944;2024-01-07T08:49:39;0.40;;;0.40;;
12675;SDS011;63820;65.654;21.944;2024-01-07T08:52:23;0.30;;;0.30;;
12675;SDS011;63820;65.654;21.944;2024-01-07T08:55:08;0.30;;;0.30;;
12675;SDS011;63820;65.654;21.944;2024-01-07T08:57:53;0.30;;;0.30;;
12675;SDS011;63820;65.654;21.944;2024-01-07T09:00:37;0.33;;;0.33;;
12675;SDS011;63820;65.654;21.944;2024-01-07T09:03:21;4.73;;;1.43;;
12675;SDS011;63820;65.654;21.944;2024-01-07T09:06:05;0.63;;;0.63;;
12675;SDS011;63820;65.654;21.944;2024-01-07T09:08:49;0.50;;;0.50;;
12675;SDS011;63820;65.654;21.944;2024-01-07T09:11:33;0.40;;;0.40;;
12675;SDS011;63820;65.654;21.944;2024-01-07T09:14:18;0.87;;;0.80;;
12675;SDS011;63820;65.654;21.944;2024-01-07T09:17:02;0.43;;;0.43;;
12675;SDS011;63820;65.654;21.944;2024-01-07T09:19:46;0.50;;;0.50;;
12675;SDS011;63820;65.654;21.944;2024-01-07T09:22:30;1.53;;;1.43;;
12675;SDS011;63820;65.654;21.944;2024-01-07T09:25:14;0.77;;;0.77;;
12675;SDS011;63820;65.654;21.944;2024-01-07T09:27:58;0.20;;;0.20;;
12675;SDS011;63820;65.654;21.944;2024-01-07T09:30:42;0.73;;;0.60;;
12675;SDS011;63820;65.654;21.944;2024-01-07T09:33:26;0.77;;;0.77;;
12675;SDS011;63820;65.654;21.944;2024-01-07T09:36:10;2.00;;;1.80;;
12675;SDS011;63820;65.654;21.944;2024-01-07T09:38:54;1.70;;;1.27;;
12675;SDS011;63820;65.654;21.944;2024-01-07T09:41:38;0.80;;;0.80;;
12675;SDS011;63820;65.654;21.944;2024-01-07T09:44:22;2.20;;;1.77;;
12675;SDS011;63820;65.654;21.944;2024-01-07T09:47:10;0.60;;;0.60;;
12675;SDS011;63820;65.654;21.944;2024-01-07T09:49:55;0.73;;;0.73;;
12675;SDS011;63820;65.654;21.944;2024-01-07T09:52:40;1.60;;;1.43;;
12675;SDS011;63820;65.654;21.944;2024-01-07T09:55:30;3.50;;;2.17;;
12675;SDS011;63820;65.654;21.944;2024-01-07T09:58:17;0.93;;;0.93;;
12675;SDS011;63820;65.654;21.944;2024-01-07T10:01:01;0.30;;;0.30;;
12675;SDS011;63820;65.654;21.944;2024-01-07T10:03:48;1.70;;;0.83;;
12675;SDS011;63820;65.654;21.944;2024-01-07T10:06:32;3.00;;;2.70;;
12675;SDS011;63820;65.654;21.944;2024-01-07T10:09:17;1.67;;;1.60;;
12675;SDS011;63820;65.654;21.944;2024-01-07T10:12:01;1.27;;;1.27;;
12675;SDS011;63820;65.654;21.944;2024-01-07T10:14:46;3.07;;;1.57;;
12675;SDS011;63820;65.654;21.944;2024-01-07T10:17:30;3.47;;;2.07;;
12675;SDS011;63820;65.654;21.944;2024-01-07T10:20:14;3.27;;;1.83;;
12675;SDS011;63820;65.654;21.944;2024-01-07T10:23:00;3.13;;;2.30;;
12675;SDS011;63820;65.654;21.944;2024-01-07T10:25:46;1.97;;;1.70;;
12675;SDS011;63820;65.654;21.944;2024-01-07T10:28:33;2.40;;;1.03;;
12675;SDS011;63820;65.654;21.944;2024-01-07T10:31:17;1.33;;;1.23;;
12675;SDS011;63820;65.654;21.944;2024-01-07T10:34:02;0.83;;;0.83;;
12675;SDS011;63820;65.654;21.944;2024-01-07T10:36:46;1.63;;;1.53;;
12675;SDS011;63820;65.654;21.944;2024-01-07T10:39:31;1.70;;;1.60;;
12675;SDS011;63820;65.654;21.944;2024-01-07T10:42:16;2.97;;;2.03;;
12675;SDS011;63820;65.654;21.944;2024-01-07T10:45:02;2.33;;;1.50;;
12675;SDS011;63820;65.654;21.944;2024-01-07T10:47:48;1.83;;;1.37;;
12675;SDS011;63820;65.654;21.944;2024-01-07T10:50:36;2.67;;;1.83;;
12675;SDS011;63820;65.654;21.944;2024-01-07T10:53:22;3.43;;;1.23;;
12675;SDS011;63820;65.654;21.944;2024-01-07T10:56:11;1.77;;;1.67;;
12675;SDS011;63820;65.654;21.944;2024-01-07T10:58:56;2.47;;;1.83;;
12675;SDS011;63820;65.654;21.944;2024-01-07T11:01:41;2.30;;;1.50;;
12675;SDS011;63820;65.654;21.944;2024-01-07T11:04:33;0.90;;;0.90;;
12675;SDS011;63820;65.654;21.944;2024-01-07T11:07:40;1.77;;;1.67;;
12675;SDS011;63820;65.654;21.944;2024-01-07T11:10:30;0.80;;;0.60;;
12675;SDS011;63820;65.654;21.944;2024-01-07T11:13:42;1.77;;;1.43;;
12675;SDS011;63820;65.654;21.944;2024-01-07T11:16:41;1.27;;;1.17;;
12675;SDS011;63820;65.654;21.944;2024-01-07T11:19:27;0.70;;;0.70;;
12675;SDS011;63820;65.654;21.944;2024-01-07T11:22:21;0.77;;;0.77;;
12675;SDS011;63820;65.654;21.944;2024-01-07T11:25:27;0.70;;;0.70;;
12675;SDS011;63820;65.654;21.944;2024-01-07T11:28:14;0.70;;;0.70;;
12675;SDS011;63820;65.654;21.944;2024-01-07T11:31:00;3.90;;;1.03;;
12675;SDS011;63820;65.654;21.944;2024-01-07T11:33:46;2.53;;;1.00;;
12675;SDS011;63820;65.654;21.944;2024-01-07T11:36:32;1.97;;;1.03;;
12675;SDS011;63820;65.654;21.944;2024-01-07T11:39:19;0.93;;;0.93;;
12675;SDS011;63820;65.654;21.944;2024-01-07T11:42:03;0.93;;;0.87;;
12675;SDS011;63820;65.654;21.944;2024-01-07T11:44:51;4.47;;;1.13;;
12675;SDS011;63820;65.654;21.944;2024-01-07T11:47:39;2.67;;;1.97;;
12675;SDS011;63820;65.654;21.944;2024-01-07T11:50:23;5.37;;;3.23;;
12675;SDS011;63820;65.654;21.944;2024-01-07T11:53:07;10.07;;;3.17;;
12675;SDS011;63820;65.654;21.944;2024-01-07T11:55:52;4.30;;;1.40;;
12675;SDS011;63820;65.654;21.944;2024-01-07T11:58:36;2.87;;;1.73;;
12675;SDS011;63820;65.654;21.944;2024-01-07T12:01:20;1.30;;;1.30;;
12675;SDS011;63820;65.654;21.944;2024-01-07T12:04:04;4.23;;;2.20;;
12675;SDS011;63820;65.654;21.944;2024-01-07T12:06:48;1.57;;;1.57;;
12675;SDS011;63820;65.654;21.944;2024-01-07T12:09:32;1.53;;;1.43;;
12675;SDS011;63820;65.654;21.944;2024-01-07T12:12:16;6.37;;;1.53;;
12675;SDS011;63820;65.654;21.944;2024-01-07T12:15:00;3.47;;;1.53;;
12675;SDS011;63820;65.654;21.944;2024-01-07T12:17:56;0.80;;;0.80;;
12675;SDS011;63820;65.654;21.944;2024-01-07T12:20:41;1.27;;;1.27;;
12675;SDS011;63820;65.654;21.944;2024-01-07T12:23:26;1.87;;;1.73;;
12675;SDS011;63820;65.654;21.944;2024-01-07T12:26:11;6.07;;;2.23;;
12675;SDS011;63820;65.654;21.944;2024-01-07T12:28:56;2.07;;;1.27;;
12675;SDS011;63820;65.654;21.944;2024-01-07T12:31:43;2.83;;;1.47;;
12675;SDS011;63820;65.654;21.944;2024-01-07T12:34:30;5.10;;;2.27;;
12675;SDS011;63820;65.654;21.944;2024-01-07T12:37:15;1.63;;;1.47;;
12675;SDS011;63820;65.654;21.944;2024-01-07T12:39:59;1.63;;;1.53;;
12675;SDS011;63820;65.654;21.944;2024-01-07T12:42:43;1.80;;;1.60;;
12675;SDS011;63820;65.654;21.944;2024-01-07T12:45:31;1.70;;;0.90;;
12675;SDS011;63820;65.654;21.944;2024-01-07T12:48:16;3.20;;;1.93;;
12675;SDS011;63820;65.654;21.944;2024-01-07T12:51:00;1.13;;;1.10;;
12675;SDS011;63820;65.654;21.944;2024-01-07T12:53:45;1.90;;;1.80;;
12675;SDS011;63820;65.654;21.944;2024-01-07T12:56:29;6.07;;;2.13;;
12675;SDS011;63820;65.654;21.944;2024-01-07T12:59:14;2.10;;;1.63;;
12675;SDS011;63820;65.654;21.944;2024-01-07T13:01:59;2.60;;;2.40;;
12675;SDS011;63820;65.654;21.944;2024-01-07T13:04:43;2.50;;;2.30;;
12675;SDS011;63820;65.654;21.944;2024-01-07T13:07:28;3.50;;;1.90;;
12675;SDS011;63820;65.654;21.944;2024-01-07T13:10:12;1.07;;;1.07;;
12675;SDS011;63820;65.654;21.944;2024-01-07T13:12:56;2.40;;;2.30;;
12675;SDS011;63820;65.654;21.944;2024-01-07T13:15:40;3.67;;;2.27;;
12675;SDS011;63820;65.654;21.944;2024-01-07T13:18:25;6.47;;;3.17;;
12675;SDS011;63820;65.654;21.944;2024-01-07T13:21:09;2.63;;;2.47;;
12675;SDS011;63820;65.654;21.944;2024-01-07T13:23:54;2.47;;;2.30;;
12675;SDS011;63820;65.654;21.944;2024-01-07T13:26:38;4.93;;;3.53;;
12675;SDS011;63820;65.654;21.944;2024-01-07T13:29:22;4.73;;;3.10;;
12675;SDS011;63820;65.654;21.944;2024-01-07T13:32:08;0.80;;;0.80;;
12675;SDS011;63820;65.654;21.944;2024-01-07T13:34:52;4.63;;;0.93;;
12675;SDS011;63820;65.654;21.944;2024-01-07T13:37:36;0.90;;;0.90;;
12675;SDS011;63820;65.654;21.944;2024-01-07T13:40:21;0.67;;;0.67;;
12675;SDS011;63820;65.654;21.944;2024-01-07T13:43:05;1.47;;;1.47;;
12675;SDS011;63820;65.654;21.944;2024-01-07T13:45:49;0.87;;;0.87;;
12675;SDS011;63820;65.654;21.944;2024-01-07T13:48:33;6.77;;;1.00;;
12675;SDS011;63820;65.654;21.944;2024-01-07T13:51:18;1.40;;;1.20;;
12675;SDS011;63820;65.654;21.944;2024-01-07T13:54:02;1.20;;;1.20;;
12675;SDS011;63820;65.654;21.944;2024-01-07T13:56:46;0.83;;;0.70;;
12675;SDS011;63820;65.654;21.944;2024-01-07T13:59:30;0.60;;;0.60;;
12675;SDS011;63820;65.654;21.944;2024-01-07T14:02:14;1.23;;;1.20;;
12675;SDS011;63820;65.654;21.944;2024-01-07T14:05:04;1.43;;;1.33;;
12675;SDS011;63820;65.654;21.944;2024-01-07T14:07:50;0.63;;;0.63;;
12675;SDS011;63820;65.654;21.944;2024-01-07T14:10:35;2.07;;;2.00;;
12675;SDS011;63820;65.654;21.944;2024-01-07T14:13:20;4.60;;;4.23;;
12675;SDS011;63820;65.654;21.944;2024-01-07T14:16:04;6.73;;;4.30;;
12675;SDS011;63820;65.654;21.944;2024-01-07T14:18:48;1.83;;;1.43;;
12675;SDS011;63820;65.654;21.944;2024-01-07T14:21:32;2.10;;;1.53;;
12675;SDS011;63820;65.654;21.944;2024-01-07T14:24:16;3.17;;;1.77;;
12675;SDS011;63820;65.654;21.944;2024-01-07T14:27:00;0.80;;;0.73;;
12675;SDS011;63820;65.654;21.944;2024-01-07T14:29:44;2.17;;;1.70;;
12675;SDS011;63820;65.654;21.944;2024-01-07T14:32:29;0.87;;;0.87;;
12675;SDS011;63820;65.654;21.944;2024-01-07T14:35:13;1.63;;;1.60;;
12675;SDS011;63820;65.654;21.944;2024-01-07T14:38:00;1.80;;;1.70;;
12675;SDS011;63820;65.654;21.944;2024-01-07T14:40:44;0.57;;;0.57;;
12675;SDS011;63820;65.654;21.944;2024-01-07T14:43:30;2.23;;;2.10;;
12675;SDS011;63820;65.654;21.944;2024-01-07T14:46:14;2.97;;;2.20;;
12675;SDS011;63820;65.654;21.944;2024-01-07T14:48:58;2.00;;;1.70;;
12675;SDS011;63820;65.654;21.944;2024-01-07T14:51:42;1.40;;;1.30;;
12675;SDS011;63820;65.654;21.944;2024-01-07T14:54:26;1.23;;;1.23;;
12675;SDS011;63820;65.654;21.944;2024-01-07T14:57:10;1.50;;;1.40;;
12675;SDS011;63820;65.654;21.944;2024-01-07T14:59:55;3.53;;;3.23;;
12675;SDS011;63820;65.654;21.944;2024-01-07T15:02:39;0.73;;;0.73;;
12675;SDS011;63820;65.654;21.944;2024-01-07T15:05:23;4.53;;;1.67;;
12675;SDS011;63820;65.654;21.944;2024-01-07T15:08:07;6.87;;;3.20;;
12675;SDS011;63820;65.654;21.944;2024-01-07T15:10:51;1.70;;;1.60;;
12675;SDS011;63820;65.654;21.944;2024-01-07T15:13:35;1.20;;;1.20;;
12675;SDS011;63820;65.654;21.944;2024-01-07T15:16:21;0.67;;;0.67;;
12675;SDS011;63820;65.654;21.944;2024-01-07T15:19:05;1.67;;;1.43;;
12675;SDS011;63820;65.654;21.944;2024-01-07T15:21:49;2.23;;;2.03;;
12675;SDS011;63820;65.654;21.944;2024-01-07T15:24:33;2.33;;;2.13;;
12675;SDS011;63820;65.654;21.944;2024-01-07T15:27:17;1.90;;;1.80;;
12675;SDS011;63820;65.654;21.944;2024-01-07T15:30:00;1.37;;;1.33;;
12675;SDS011;63820;65.654;21.944;2024-01-07T15:32:44;1.03;;;1.00;;
12675;SDS011;63820;65.654;21.944;2024-01-07T15:35:29;0.40;;;0.40;;
12675;SDS011;63820;65.654;21.944;2024-01-07T15:38:13;11.07;;;3.53;;
12675;SDS011;63820;65.654;21.944;2024-01-07T15:40:57;1.37;;;1.13;;
12675;SDS011;63820;65.654;21.944;2024-01-07T15:43:41;1.20;;;1.20;;
12675;SDS011;63820;65.654;21.944;2024-01-07T15:46:25;6.17;;;2.73;;
12675;SDS011;63820;65.654;21.944;2024-01-07T15:49:09;9.40;;;8.53;;
12675;SDS011;63820;65.654;21.944;2024-01-07T15:51:53;7.27;;;5.13;;
12675;SDS011;63820;65.654;21.944;2024-01-07T15:54:37;8.40;;;3.87;;
12675;SDS011;63820;65.654;21.944;2024-01-07T15:57:21;1.43;;;1.43;;
12675;SDS011;63820;65.654;21.944;2024-01-07T16:00:05;50.47;;;14.93;;
12675;SDS011;63820;65.654;21.944;2024-01-07T16:02:51;22.47;;;16.43;;
12675;SDS011;63820;65.654;21.944;2024-01-07T16:05:35;16.77;;;6.10;;
12675;SDS011;63820;65.654;21.944;2024-01-07T16:08:19;2.53;;;1.73;;
12675;SDS011;63820;65.654;21.944;2024-01-07T16:11:04;1.67;;;1.57;;
12675;SDS011;63820;65.654;21.944;2024-01-07T16:13:48;1.77;;;1.67;;
12675;SDS011;63820;65.654;21.944;2024-01-07T16:16:33;1.50;;;1.33;;